Gill, Indiana
Current Conditions -  °F | °C
As of 11:15 AM on Thursday 27 Nov 2014 (Local Time) from KRSV Reporting Station
Haze Haze  
Wind Chill: 16°   Ceiling: 1400
Heat Index: 28°   Visibility: 5mi
Dew Point: 24°   Wind: 15mph
Humidity: 85%   Direction: 300°WNW
Pressure: 30.44"   Gusts: NA
Location:  39.0138°N, 87.523°W
Report Text: KRSV 271615Z AUTO 30013KT 5SM BR BKN014 OVC060 M02/M05 A3044 RMK AO2 T10251047
Loading
Personal Weather Stations






























Interactive Weather Map New forecast layout! Learn more

10-Day Weather Forecast

Advertisements
Track Severe Weather on mobile